createdAt,value
2022-09-20T00:01:32.847Z,3.65
2022-09-20T00:04:05.495Z,3.60
2022-09-20T00:06:34.427Z,4.10
2022-09-20T00:09:03.302Z,3.95
2022-09-20T00:11:35.748Z,2.92
2022-09-20T00:14:06.118Z,2.65
2022-09-20T00:16:38.051Z,2.30
2022-09-20T00:19:06.842Z,1.75
2022-09-20T00:21:36.395Z,1.48
2022-09-20T00:24:04.474Z,1.77
2022-09-20T00:26:31.664Z,1.40
2022-09-20T00:28:59.567Z,1.95
2022-09-20T00:31:26.683Z,1.75
2022-09-20T00:34:17.089Z,1.40
2022-09-20T00:36:45.144Z,1.92
2022-09-20T00:39:14.962Z,1.42
2022-09-20T00:41:42.673Z,2.25
2022-09-20T00:44:53.535Z,2.55
2022-09-20T00:47:45.070Z,2.65
2022-09-20T00:50:44.664Z,2.40
2022-09-20T00:53:20.928Z,3.25
2022-09-20T00:56:24.853Z,2.90
2022-09-20T00:59:21.449Z,3.30
2022-09-20T01:01:58.328Z,3.13
2022-09-20T01:04:27.687Z,4.40
2022-09-20T01:07:01.192Z,4.72
2022-09-20T01:09:28.141Z,3.38
2022-09-20T01:11:58.114Z,4.63
2022-09-20T01:14:26.990Z,4.13
2022-09-20T01:17:00.049Z,4.68
2022-09-20T01:19:48.804Z,4.78
2022-09-20T01:22:32.141Z,5.07
2022-09-20T01:25:39.894Z,5.15
2022-09-20T01:28:07.324Z,4.30
2022-09-20T01:31:06.351Z,4.45
2022-09-20T01:33:53.192Z,4.20
2022-09-20T01:36:49.512Z,3.65
2022-09-20T01:39:46.980Z,4.40
2022-09-20T01:42:14.979Z,4.30
2022-09-20T01:45:12.723Z,4.15
2022-09-20T01:48:05.546Z,3.92
2022-09-20T01:50:48.303Z,3.92
2022-09-20T01:53:36.291Z,3.80
2022-09-20T01:56:09.099Z,3.70
2022-09-20T01:59:24.595Z,4.05
2022-09-20T02:02:08.801Z,4.00
2022-09-20T02:04:59.979Z,3.58
2022-09-20T02:07:56.024Z,4.00
2022-09-20T02:10:47.826Z,3.72
2022-09-20T02:13:33.371Z,3.75
2022-09-20T02:16:43.756Z,4.25
2022-09-20T02:19:50.434Z,4.28
2022-09-20T02:22:52.593Z,4.25
2022-09-20T02:26:02.801Z,4.22
2022-09-20T02:29:16.864Z,4.70
2022-09-20T02:32:02.011Z,4.97
2022-09-20T02:34:55.742Z,5.25
2022-09-20T02:37:40.631Z,4.22
2022-09-20T02:40:47.381Z,4.13
2022-09-20T02:43:44.731Z,4.53
2022-09-20T02:46:39.623Z,4.05
2022-09-20T02:49:34.291Z,4.63
2022-09-20T02:52:28.131Z,4.57
2022-09-20T02:55:06.224Z,4.40
2022-09-20T02:58:03.821Z,4.22
2022-09-20T03:00:46.157Z,4.38
2022-09-20T03:04:01.899Z,4.75
2022-09-20T03:07:12.419Z,4.28
2022-09-20T03:10:00.246Z,4.65
2022-09-20T03:12:39.254Z,5.07
2022-09-20T03:15:52.870Z,5.15
2022-09-20T03:18:47.142Z,5.38
2022-09-20T03:21:29.390Z,5.50
2022-09-20T03:24:24.343Z,5.82
2022-09-20T03:27:16.639Z,5.80
2022-09-20T03:30:32.730Z,6.05
2022-09-20T03:33:30.249Z,5.80
2022-09-20T03:36:12.961Z,5.95
2022-09-20T03:39:11.111Z,6.32
2022-09-20T03:42:08.557Z,5.88
2022-09-20T03:44:46.823Z,5.57
2022-09-20T03:47:47.972Z,5.72
2022-09-20T03:50:28.229Z,5.20
2022-09-20T03:53:16.942Z,5.28
2022-09-20T03:56:40.467Z,5.32
2022-09-20T03:59:13.272Z,5.70
2022-09-20T04:02:06.724Z,5.78
2022-09-20T04:04:52.370Z,6.43
2022-09-20T04:11:06.045Z,7.15
2022-09-20T04:13:50.550Z,6.78
2022-09-20T04:17:11.375Z,7.30
2022-09-20T04:19:55.054Z,7.43
2022-09-20T04:22:26.241Z,7.53
2022-09-20T04:25:05.880Z,8.20
2022-09-20T04:28:00.139Z,8.02
2022-09-20T04:30:33.736Z,7.95
2022-09-20T04:33:27.476Z,8.73
2022-09-20T04:36:55.910Z,9.98
2022-09-20T04:39:32.530Z,9.10
2022-09-20T04:42:23.575Z,10.73
2022-09-20T04:45:56.093Z,9.40
2022-09-20T04:48:42.280Z,10.13
2022-09-20T04:51:47.661Z,10.68
2022-09-20T04:54:58.640Z,10.47
2022-09-20T04:57:58.352Z,10.85
2022-09-20T05:00:52.531Z,9.85
2022-09-20T05:03:43.656Z,9.35
2022-09-20T05:06:38.832Z,10.50
2022-09-20T05:09:42.385Z,10.80
2022-09-20T05:12:23.996Z,9.93
2022-09-20T05:15:23.399Z,10.00
2022-09-20T05:18:33.137Z,9.40
2022-09-20T05:21:22.732Z,10.25
2022-09-20T05:24:18.785Z,10.27
2022-09-20T05:27:30.082Z,9.60
2022-09-20T05:30:25.969Z,9.23
2022-09-20T05:36:16.205Z,9.50
2022-09-20T05:38:56.374Z,8.52
2022-09-20T05:41:45.580Z,9.40
2022-09-20T05:44:55.100Z,10.40
2022-09-20T05:48:08.902Z,9.90
2022-09-20T05:51:01.887Z,9.20
2022-09-20T05:53:48.867Z,10.52
2022-09-20T05:56:43.108Z,11.30
2022-09-20T05:59:40.384Z,11.85
2022-09-20T06:02:23.849Z,10.88
2022-09-20T06:05:09.161Z,11.90
2022-09-20T06:08:08.942Z,12.10
2022-09-20T06:11:16.562Z,12.10
2022-09-20T06:14:03.595Z,12.45
2022-09-20T06:17:05.331Z,11.45
2022-09-20T06:20:13.487Z,12.88
2022-09-20T06:22:50.130Z,13.77
2022-09-20T06:25:26.608Z,13.30
2022-09-20T06:28:01.815Z,13.57
2022-09-20T06:30:35.473Z,13.73
2022-09-20T06:33:18.249Z,13.65
2022-09-20T06:35:56.949Z,13.95
2022-09-20T06:39:32.393Z,14.13
2022-09-20T06:42:00.547Z,14.93
2022-09-20T06:44:29.426Z,14.45
2022-09-20T06:46:56.361Z,15.82
2022-09-20T06:49:24.127Z,14.00
2022-09-20T06:51:51.286Z,14.98
2022-09-20T06:54:21.513Z,12.35
2022-09-20T06:56:51.235Z,12.20
2022-09-20T06:59:18.600Z,12.18
2022-09-20T07:01:45.675Z,11.93
2022-09-20T07:04:12.546Z,12.02
2022-09-20T07:06:40.540Z,11.65
2022-09-20T07:09:07.582Z,11.60
2022-09-20T07:11:34.966Z,10.85
2022-09-20T07:14:02.583Z,10.20
2022-09-20T07:16:29.867Z,10.30
2022-09-20T07:18:56.937Z,10.80
2022-09-20T07:21:24.370Z,10.38
2022-09-20T07:23:53.819Z,9.82
2022-09-20T07:26:28.371Z,9.77
2022-09-20T07:28:57.337Z,9.30
2022-09-20T07:31:27.553Z,9.18
2022-09-20T07:33:54.905Z,9.57
2022-09-20T07:36:22.286Z,11.05
2022-09-20T07:38:52.980Z,11.10
2022-09-20T07:41:22.905Z,11.70
2022-09-20T07:43:51.004Z,10.90
2022-09-20T07:46:18.172Z,11.40
2022-09-20T07:48:45.070Z,11.80
2022-09-20T07:51:13.818Z,12.88
2022-09-20T07:53:41.373Z,12.45
2022-09-20T07:56:16.212Z,12.52
2022-09-20T07:58:47.428Z,12.68
2022-09-20T08:01:19.923Z,13.18
2022-09-20T08:03:46.824Z,13.80
2022-09-20T08:06:18.387Z,13.00
2022-09-20T08:08:45.586Z,13.98
2022-09-20T08:11:17.112Z,14.45
2022-09-20T08:14:07.392Z,14.10
2022-09-20T08:16:44.644Z,12.45
2022-09-20T08:19:20.969Z,13.07
2022-09-20T08:21:49.723Z,12.35
2022-09-20T08:24:17.289Z,11.38
2022-09-20T08:26:44.921Z,10.07
2022-09-20T08:29:12.428Z,8.88
2022-09-20T08:31:42.403Z,9.88
2022-09-20T08:34:12.428Z,9.98
2022-09-20T08:36:46.761Z,9.88
2022-09-20T08:42:20.784Z,8.32
2022-09-20T08:47:35.810Z,7.72
2022-09-20T08:50:10.173Z,6.45
2022-09-20T08:52:40.600Z,6.18
2022-09-20T08:55:37.639Z,6.50
2022-09-20T08:58:08.578Z,6.07
2022-09-20T09:00:38.815Z,6.40
2022-09-20T09:03:12.227Z,6.03
2022-09-20T09:05:55.495Z,5.85
2022-09-20T09:08:29.259Z,5.40
2022-09-20T09:11:04.717Z,5.05
2022-09-20T09:14:01.559Z,4.85
2022-09-20T09:16:35.377Z,5.85
2022-09-20T09:19:43.279Z,4.40
2022-09-20T09:22:11.091Z,5.15
2022-09-20T09:24:37.950Z,4.65
2022-09-20T09:27:19.321Z,4.70
2022-09-20T09:30:20.978Z,4.50
2022-09-20T09:32:47.887Z,5.10
2022-09-20T09:35:31.832Z,4.95
2022-09-20T09:38:02.492Z,4.60
2022-09-20T09:40:32.355Z,4.18
2022-09-20T09:43:02.895Z,4.95
2022-09-20T09:45:36.246Z,4.55
2022-09-20T09:48:10.417Z,4.97
2022-09-20T09:50:37.295Z,4.70
2022-09-20T09:53:12.089Z,4.10
2022-09-20T09:56:14.510Z,4.03
2022-09-20T09:59:32.268Z,4.25
2022-09-20T10:02:41.000Z,4.13
2022-09-20T10:06:07.415Z,3.67
2022-09-20T10:09:08.720Z,4.70
2022-09-20T10:12:00.404Z,3.85
2022-09-20T10:14:58.036Z,4.10
2022-09-20T10:18:01.036Z,3.50
2022-09-20T10:20:58.152Z,3.53
2022-09-20T10:24:06.383Z,3.92
2022-09-20T10:27:04.709Z,4.05
2022-09-20T10:29:57.250Z,3.60
2022-09-20T10:33:03.116Z,3.53
2022-09-20T10:35:45.817Z,3.20
2022-09-20T10:38:30.263Z,3.30
2022-09-20T10:41:44.873Z,2.80
2022-09-20T10:45:05.702Z,2.33
2022-09-20T10:48:07.228Z,1.90
2022-09-20T10:50:48.768Z,1.77
2022-09-20T10:53:55.374Z,1.60
2022-09-20T10:56:40.500Z,2.00
2022-09-20T10:59:51.389Z,2.08
2022-09-20T11:02:44.535Z,1.90
2022-09-20T11:05:29.734Z,1.80
2022-09-20T11:08:22.754Z,2.03
2022-09-20T11:10:58.732Z,1.90
2022-09-20T11:13:42.442Z,2.00
2022-09-20T11:16:36.583Z,1.70
2022-09-20T11:19:31.337Z,1.88
2022-09-20T11:22:18.849Z,1.65
2022-09-20T11:24:57.872Z,1.60
2022-09-20T11:27:44.677Z,1.77
2022-09-20T11:30:23.791Z,1.60
2022-09-20T11:33:15.194Z,1.70
2022-09-20T11:35:52.214Z,1.80
2022-09-20T11:38:53.689Z,0.85
2022-09-20T11:41:29.055Z,0.90
2022-09-20T11:44:09.908Z,1.08
2022-09-20T11:47:01.288Z,0.80
2022-09-20T11:49:40.793Z,1.00
2022-09-20T11:52:52.870Z,1.25
2022-09-20T11:55:35.995Z,1.55
2022-09-20T11:58:13.743Z,1.50
2022-09-20T12:00:47.860Z,2.05
2022-09-20T12:03:25.469Z,2.10
2022-09-20T12:06:05.929Z,2.00
2022-09-20T12:08:37.387Z,1.77
2022-09-20T12:11:14.532Z,1.50
2022-09-20T12:13:53.815Z,1.70
2022-09-20T12:16:43.551Z,1.33
2022-09-20T12:19:34.331Z,1.30
2022-09-20T12:22:01.192Z,1.30
2022-09-20T12:24:33.901Z,1.23
2022-09-20T12:27:29.180Z,1.10
2022-09-20T12:30:20.113Z,1.08
2022-09-20T12:32:51.931Z,1.35
2022-09-20T12:35:38.940Z,1.20
2022-09-20T12:38:21.172Z,1.50
2022-09-20T12:41:10.245Z,1.60
2022-09-20T12:44:10.580Z,1.55
2022-09-20T12:46:50.678Z,1.73
2022-09-20T12:50:04.449Z,1.67
2022-09-20T12:52:52.193Z,1.60
2022-09-20T12:55:54.870Z,1.75
2022-09-20T12:58:40.183Z,1.60
2022-09-20T13:03:41.045Z,1.10
2022-09-20T13:06:13.686Z,1.20
2022-09-20T13:09:01.796Z,1.33
2022-09-20T13:11:45.680Z,1.30
2022-09-20T13:14:18.755Z,1.58
2022-09-20T13:17:18.602Z,1.48
2022-09-20T13:19:49.306Z,1.23
2022-09-20T13:22:37.761Z,1.40
2022-09-20T13:25:13.930Z,1.27
2022-09-20T13:27:51.488Z,1.50
2022-09-20T13:30:29.782Z,1.35
2022-09-20T13:32:56.822Z,0.80
2022-09-20T13:35:31.572Z,0.85
2022-09-20T13:38:07.260Z,1.13
2022-09-20T13:40:47.764Z,0.90
2022-09-20T13:43:41.423Z,1.00
2022-09-20T13:46:43.433Z,1.05
2022-09-20T13:49:22.140Z,1.33
2022-09-20T13:51:49.695Z,1.60
2022-09-20T13:54:33.235Z,0.98
2022-09-20T13:57:20.717Z,0.70
2022-09-20T13:59:48.911Z,0.60
2022-09-20T14:02:29.543Z,0.43
2022-09-20T14:05:00.873Z,0.40
2022-09-20T14:07:29.490Z,0.70
2022-09-20T14:09:58.120Z,0.43
2022-09-20T14:12:27.463Z,0.65
2022-09-20T14:14:55.375Z,0.60
2022-09-20T14:17:24.823Z,0.90
2022-09-20T14:19:54.790Z,0.75
2022-09-20T14:22:28.658Z,0.70
2022-09-20T14:25:14.768Z,1.00
2022-09-20T14:27:41.691Z,1.17
2022-09-20T14:30:31.514Z,1.17
2022-09-20T14:32:59.720Z,1.08
2022-09-20T14:35:27.312Z,0.90
2022-09-20T14:38:01.270Z,1.10
2022-09-20T14:40:40.837Z,1.15
2022-09-20T14:43:23.746Z,1.08
2022-09-20T14:46:01.338Z,1.17
2022-09-20T14:48:35.425Z,1.15
2022-09-20T14:51:22.184Z,1.15
2022-09-20T14:54:12.591Z,1.10
2022-09-20T14:56:49.239Z,1.27
2022-09-20T14:59:19.036Z,1.02
2022-09-20T15:02:15.368Z,1.48
2022-09-20T15:04:57.334Z,1.30
2022-09-20T15:07:24.197Z,1.08
2022-09-20T15:09:51.068Z,1.10
2022-09-20T15:12:20.761Z,1.42
2022-09-20T15:14:49.288Z,0.93
2022-09-20T15:17:20.153Z,1.20
2022-09-20T15:19:48.798Z,1.25
2022-09-20T15:22:16.026Z,1.27
2022-09-20T15:24:44.104Z,0.90
2022-09-20T15:27:13.157Z,0.90
2022-09-20T15:29:40.850Z,1.02
2022-09-20T15:32:10.640Z,1.42
2022-09-20T15:34:38.057Z,1.38
2022-09-20T15:37:05.148Z,1.40
2022-09-20T15:39:31.958Z,1.40
2022-09-20T15:41:58.780Z,1.40
2022-09-20T15:44:25.595Z,1.08
2022-09-20T15:46:53.640Z,1.35
2022-09-20T15:49:21.653Z,1.45
2022-09-20T15:51:48.513Z,1.30
2022-09-20T15:54:15.515Z,1.20
2022-09-20T15:56:42.811Z,1.27
2022-09-20T15:59:13.259Z,1.25
2022-09-20T16:01:45.605Z,1.33
2022-09-20T16:04:19.444Z,1.70
2022-09-20T16:06:49.592Z,1.50
2022-09-20T16:09:18.114Z,1.60
2022-09-20T16:11:49.046Z,1.83
2022-09-20T16:14:15.895Z,1.70
2022-09-20T16:16:42.803Z,1.55
2022-09-20T16:19:21.019Z,1.80
2022-09-20T16:21:57.857Z,1.70
2022-09-20T16:24:36.913Z,1.40
2022-09-20T16:27:07.404Z,1.60
2022-09-20T16:29:34.986Z,1.67
2022-09-20T16:32:03.768Z,1.40
2022-09-20T16:34:35.886Z,1.25
2022-09-20T16:37:11.944Z,1.45
2022-09-20T16:39:40.507Z,1.80
2022-09-20T16:42:09.039Z,1.75
2022-09-20T16:44:38.816Z,2.25
2022-09-20T16:47:10.735Z,2.10
2022-09-20T16:49:38.343Z,2.17
2022-09-20T16:52:07.705Z,2.05
2022-09-20T16:54:34.809Z,2.08
2022-09-20T16:57:01.807Z,2.45
2022-09-20T16:59:28.847Z,2.13
2022-09-20T17:01:55.815Z,2.40
2022-09-20T17:04:23.128Z,2.60
2022-09-20T17:06:51.505Z,2.30
2022-09-20T17:09:20.639Z,1.90
2022-09-20T17:11:50.309Z,1.30
2022-09-20T17:14:20.323Z,1.65
2022-09-20T17:16:49.153Z,1.25
2022-09-20T17:19:20.748Z,1.23
2022-09-20T17:21:50.670Z,1.45
2022-09-20T17:24:20.577Z,1.40
2022-09-20T17:26:48.846Z,1.70
2022-09-20T17:29:18.067Z,1.90
2022-09-20T17:31:54.591Z,2.03
2022-09-20T17:34:25.057Z,1.83
2022-09-20T17:36:55.571Z,2.25
2022-09-20T17:39:24.446Z,2.20
2022-09-20T17:41:51.567Z,1.92
2022-09-20T17:44:18.705Z,2.13
2022-09-20T17:46:49.553Z,2.20
2022-09-20T17:49:22.472Z,2.60
2022-09-20T17:51:52.607Z,2.40
2022-09-20T17:54:20.809Z,2.70
2022-09-20T17:56:51.194Z,3.10
2022-09-20T17:59:20.485Z,3.22
2022-09-20T18:01:51.935Z,2.30
2022-09-20T18:04:21.166Z,2.83
2022-09-20T18:06:51.360Z,2.60
2022-09-20T18:09:22.150Z,3.20
2022-09-20T18:11:52.851Z,3.33
2022-09-20T18:14:28.311Z,3.60
2022-09-20T18:17:01.027Z,3.92
2022-09-20T18:19:34.771Z,3.40
2022-09-20T18:22:03.437Z,3.53
2022-09-20T18:24:30.879Z,4.10
2022-09-20T18:26:57.749Z,4.88
2022-09-20T18:29:29.919Z,4.43
2022-09-20T18:31:57.895Z,3.55
2022-09-20T18:34:34.012Z,3.90
2022-09-20T18:37:03.853Z,3.90
2022-09-20T18:39:33.629Z,4.18
2022-09-20T18:42:02.149Z,3.90
2022-09-20T18:44:33.708Z,4.47
2022-09-20T18:47:03.312Z,3.90
2022-09-20T18:49:30.817Z,4.15
2022-09-20T18:51:58.457Z,4.60
2022-09-20T18:54:25.608Z,4.45
2022-09-20T18:56:53.232Z,4.80
2022-09-20T18:59:24.377Z,3.97
2022-09-20T19:01:57.638Z,4.00
2022-09-20T19:04:36.665Z,3.50
2022-09-20T19:07:28.594Z,3.78
2022-09-20T19:10:06.049Z,4.15
2022-09-20T19:13:04.705Z,4.07
2022-09-20T19:16:14.017Z,6.20
2022-09-20T19:19:20.123Z,4.38
2022-09-20T19:22:34.632Z,4.55
2022-09-20T19:25:40.789Z,4.03
2022-09-20T19:28:12.501Z,5.63
2022-09-20T19:30:40.618Z,4.70
2022-09-20T19:33:18.568Z,4.97
2022-09-20T19:35:52.193Z,4.63
2022-09-20T19:38:37.307Z,4.60
2022-09-20T19:41:47.289Z,4.50
2022-09-20T19:44:39.892Z,4.10
2022-09-20T19:47:34.917Z,4.85
2022-09-20T19:50:27.776Z,4.45
2022-09-20T19:52:58.681Z,4.57
2022-09-20T19:55:26.177Z,4.07
2022-09-20T19:57:53.556Z,4.15
2022-09-20T20:00:21.842Z,3.53
2022-09-20T20:02:49.594Z,3.70
2022-09-20T20:05:21.386Z,3.70
2022-09-20T20:08:26.365Z,3.40
2022-09-20T20:11:03.791Z,3.58
2022-09-20T20:14:03.299Z,3.47
2022-09-20T20:16:48.852Z,3.40
2022-09-20T20:19:36.939Z,2.95
2022-09-20T20:22:42.243Z,3.50
2022-09-20T20:25:29.242Z,3.63
2022-09-20T20:27:56.201Z,2.83
2022-09-20T20:30:23.149Z,3.15
2022-09-20T20:32:51.061Z,3.30
2022-09-20T20:35:22.871Z,3.60
2022-09-20T20:37:49.969Z,3.33
2022-09-20T20:40:16.972Z,3.17
2022-09-20T20:42:44.167Z,3.53
2022-09-20T20:45:11.765Z,3.78
2022-09-20T20:47:44.016Z,3.00
2022-09-20T20:50:11.779Z,3.35
2022-09-20T20:52:39.206Z,3.78
2022-09-20T20:55:06.948Z,3.55
2022-09-20T20:57:34.366Z,3.50
2022-09-20T21:00:01.349Z,3.92
2022-09-20T21:02:28.309Z,3.38
2022-09-20T21:04:55.769Z,4.30
2022-09-20T21:07:22.705Z,3.92
2022-09-20T21:09:53.032Z,4.18
2022-09-20T21:12:21.144Z,4.03
2022-09-20T21:14:48.069Z,3.80
2022-09-20T21:17:15.103Z,3.92
2022-09-20T21:19:42.150Z,4.25
2022-09-20T21:22:09.037Z,4.22
2022-09-20T21:24:35.869Z,4.63
2022-09-20T21:27:05.036Z,4.53
2022-09-20T21:29:32.478Z,4.10
2022-09-20T21:31:59.357Z,4.18
2022-09-20T21:34:26.423Z,4.68
2022-09-20T21:36:53.498Z,5.45
2022-09-20T21:39:20.288Z,3.88
2022-09-20T21:41:47.057Z,4.47
2022-09-20T21:44:15.070Z,4.63
2022-09-20T21:46:42.514Z,4.50
2022-09-20T21:49:12.311Z,4.10
2022-09-20T21:51:45.136Z,4.80
2022-09-20T21:54:12.397Z,4.95
2022-09-20T21:56:41.319Z,5.30
2022-09-20T21:59:08.413Z,5.68
2022-09-20T22:01:39.229Z,6.72
2022-09-20T22:04:10.038Z,5.18
2022-09-20T22:06:41.393Z,5.28
2022-09-20T22:09:14.929Z,5.75
2022-09-20T22:11:48.317Z,6.20
2022-09-20T22:14:19.589Z,5.07
2022-09-20T22:16:49.002Z,6.10
2022-09-20T22:19:18.359Z,6.03
2022-09-20T22:21:48.777Z,5.07
2022-09-20T22:24:17.762Z,4.80
2022-09-20T22:26:48.545Z,4.97
2022-09-20T22:29:15.802Z,6.13
2022-09-20T22:31:45.608Z,6.00
2022-09-20T22:34:20.399Z,4.70
2022-09-20T22:36:47.861Z,5.03
2022-09-20T22:39:15.951Z,6.45
2022-09-20T22:41:44.511Z,5.90
2022-09-20T22:44:12.093Z,6.55
2022-09-20T22:46:39.888Z,6.30
2022-09-20T22:49:09.328Z,6.50
2022-09-20T22:51:38.261Z,6.57
2022-09-20T22:54:09.245Z,6.60
2022-09-20T22:56:37.803Z,6.28
2022-09-20T22:59:13.460Z,6.30
2022-09-20T23:01:46.709Z,5.53
2022-09-20T23:04:20.154Z,5.70
2022-09-20T23:06:54.521Z,6.30
2022-09-20T23:09:25.520Z,5.50
2022-09-20T23:11:52.889Z,5.43
2022-09-20T23:14:22.061Z,5.93
2022-09-20T23:16:49.763Z,5.32
2022-09-20T23:19:16.997Z,4.72
2022-09-20T23:21:44.846Z,5.30
2022-09-20T23:24:14.334Z,5.10
2022-09-20T23:26:42.615Z,5.70
2022-09-20T23:29:15.887Z,6.45
2022-09-20T23:31:46.647Z,7.05
2022-09-20T23:34:15.658Z,5.68
2022-09-20T23:36:43.601Z,5.03
2022-09-20T23:39:11.785Z,6.05
2022-09-20T23:41:39.432Z,6.18
2022-09-20T23:44:07.348Z,6.22
2022-09-20T23:46:34.776Z,6.55
2022-09-20T23:49:02.516Z,7.28
2022-09-20T23:51:30.662Z,6.22
2022-09-20T23:53:57.694Z,6.70
2022-09-20T23:56:24.809Z,6.13
2022-09-20T23:58:51.828Z,6.68
